Elmira Corning Regional Airport
KELM : now visible

Airfield :











YOU CAN JOIN US ON...

 
LOGIN :

Register | Disclaimer

   EN    FR    IT 

 









Legend :    VFR   Marginal VFR   IFR   Intensive IFR   Very Intensive IFR
Visi :
Ceiling :
>= 8 km
>= 3000ft
5 to 8 km
1000 to 3000 ft
1500m to 5 km
500 to 1000 ft
800 to 1500m
200 to 500 ft
< 800m
< 200 ft
Symbols :   Thunderstorms  Fog  Heavy snow  Heavy precipitations  Wind > 20 kt






- Airport Elevation : 954 ft
- IATA code : ELM


KELM - Elmira Corning Regional

CURRENT METAR :
  • 142133Z 27012KT 5SM +RA BR OVC014 03/01 A2923 RMK AO2 P0014 T00280011

EXPIRED METARs :
  • 142113Z 29013G19KT 4SM +RA BR OVC015 04/02 A2923 RMK AO2 P0008 T00390017
  • 142053Z 26009KT 6SM RA BR OVC013 04/03 A2921 RMK AO2 SLP896 P0011 60031 T00440033 55005
  • 142012Z 23006KT 3SM RA BR BKN012 OVC055 05/04 A2918 RMK AO2 P0004 T00500044
  • 142000Z 22006KT 3SM RA BR SCT012 OVC060 05/05 A2918 RMK AO2 P0002 T00500050
  • 141953Z 22006KT 3SM RA BR BKN004 BKN025 OVC048 05/05 A2918 RMK AO2 SLP886 P0008 T00500050
  • 141905Z 24007KT 4SM RA BR BKN004 BKN025 OVC048 05/04 A2921 RMK AO2 P0002 T00500044
  • 141856Z 24008KT 3SM RA BR FEW004 BKN025 OVC047 06/04 A2922 RMK AO2 P0000 T00560044
  • 141846Z 25005KT 2 1/2SM RA BR BKN002 BKN009 OVC020 05/05 A2922 RMK AO2 P0010 T00500050

TAF KELM
Valid from the 14 at 21:00 until the 15 at 18:00 UTC


142102Z 1421/1518 27010KT P6SM RA OVC015
TEMPO 1421/1424 2SM -RA BR OVC008
FM150000 27012G20KT 2SM -RA BR OVC007
FM150200 27015G25KT 3SM -RASN BR OVC012
FM150500 26015G25KT 3SM -SN BR OVC015
FM150700 26015G25KT P6SM OVC025



MET'MAP, your aeronautical weather chart ! - Copyright ORBIFLY December 2007 - Disclaimer

ORBIFLY MET'MAP TEAM :

Programming & Development : Alexandra Zaïnal
Concept & original design : Baudouin d'Aumeries
Assistance for programming : Marc-Olivier Méhu
Technical & hardware support : Manuel Goepfert

Contact : metmap@orbifly.com




SOURCES & CREDITS :

   NOAA       Earth
Advisory